Time;durP1;ratioP1;P1;durP2;ratioP2;P2;SDS_P1;SDS_P2;PMS_P1;PMS_P2;Temp;Humidity;BMP_temperature;BMP_pressure;BME280_temperature;BME280_humidity;BME280_pressure;Samples;Min_cycle;Max_cycle;Signal;HPM_P1;HPM_P2
2022/10/17 00:00:37;;;;;;;6.10;3.93;;;;;;;;;;5051182;28;20202;-76
2022/10/17 00:03:04;;;;;;;23.33;4.60;;;;;;;;;;5051750;28;20230;-76
2022/10/17 00:05:32;;;;;;;3.57;3.27;;;;;;;;;;5051279;28;20221;-76
2022/10/17 00:07:59;;;;;;;10.10;4.20;;;;;;;;;;5051458;28;20275;-76
2022/10/17 00:10:25;;;;;;;3.93;3.53;;;;;;;;;;5051018;28;20198;-76
2022/10/17 00:12:52;;;;;;;5.60;4.83;;;;;;;;;;5051562;28;20206;-76
2022/10/17 00:15:20;;;;;;;5.27;3.60;;;;;;;;;;5050981;28;20205;-76
2022/10/17 00:17:47;;;;;;;3.47;3.17;;;;;;;;;;5051771;28;20232;-76
2022/10/17 00:20:14;;;;;;;6.33;4.27;;;;;;;;;;5051193;28;20213;-76
2022/10/17 00:22:43;;;;;;;14.70;11.87;;;;;;;;;;5051314;28;20194;-76
2022/10/17 00:25:10;;;;;;;12.77;10.57;;;;;;;;;;5050994;28;20237;-76
2022/10/17 00:27:38;;;;;;;12.27;10.53;;;;;;;;;;5050833;28;20197;-76
2022/10/17 00:30:06;;;;;;;16.77;8.30;;;;;;;;;;5050737;28;20201;-76
2022/10/17 00:32:32;;;;;;;7.67;6.43;;;;;;;;;;5051458;28;20202;-76
2022/10/17 00:34:59;;;;;;;4.23;3.83;;;;;;;;;;5050754;28;20600;-76
2022/10/17 00:37:26;;;;;;;3.93;3.60;;;;;;;;;;5051496;28;20202;-76
2022/10/17 00:39:55;;;;;;;3.50;3.20;;;;;;;;;;5051096;28;20620;-76
2022/10/17 00:42:23;;;;;;;5.37;3.50;;;;;;;;;;5050796;28;20217;-76
2022/10/17 00:45:24;;;;;;;4.77;3.20;;;;;;;;;;5050968;28;20225;-76
2022/10/17 00:47:55;;;;;;;3.33;3.03;;;;;;;;;;5009119;28;20674;-76
2022/10/17 00:50:22;;;;;;;3.87;3.50;;;;;;;;;;5008747;28;20643;-76
2022/10/17 00:52:49;;;;;;;3.60;3.30;;;;;;;;;;5019503;28;20268;-76
2022/10/17 00:55:21;;;;;;;8.30;3.27;;;;;;;;;;5048952;28;20585;-76
2022/10/17 00:57:48;;;;;;;4.43;3.40;;;;;;;;;;5050817;28;20229;-76
2022/10/17 01:00:16;;;;;;;5.23;3.17;;;;;;;;;;5050627;28;20209;-76
2022/10/17 01:02:43;;;;;;;3.97;3.23;;;;;;;;;;5050682;28;20287;-76
2022/10/17 01:05:10;;;;;;;7.63;4.07;;;;;;;;;;5049124;28;20290;-76
2022/10/17 01:07:38;;;;;;;6.87;3.30;;;;;;;;;;5050668;28;20620;-76
2022/10/17 01:10:05;;;;;;;5.83;4.30;;;;;;;;;;5050500;28;20202;-76
2022/10/17 01:12:41;;;;;;;7.67;4.30;;;;;;;;;;5050444;28;20198;-76
2022/10/17 01:15:14;;;;;;;4.10;3.63;;;;;;;;;;5049866;28;20216;-76
2022/10/17 01:17:50;;;;;;;15.67;3.93;;;;;;;;;;5050249;28;20206;-76
2022/10/17 01:20:39;;;;;;;4.67;3.43;;;;;;;;;;5050271;28;20205;-76
2022/10/17 01:23:22;;;;;;;6.20;3.50;;;;;;;;;;5050218;28;20208;-76
2022/10/17 01:25:54;;;;;;;3.23;2.93;;;;;;;;;;5049982;28;20661;-76
2022/10/17 01:28:38;;;;;;;3.67;2.90;;;;;;;;;;5050797;28;20206;-76
2022/10/17 01:31:12;;;;;;;4.13;3.37;;;;;;;;;;5050031;28;20197;-76
2022/10/17 01:33:46;;;;;;;8.10;3.03;;;;;;;;;;5050622;28;20244;-77
2022/10/17 01:36:19;;;;;;;3.43;3.10;;;;;;;;;;5049962;28;20691;-77
2022/10/17 01:38:48;;;;;;;3.07;2.87;;;;;;;;;;5050147;28;21114;-75
2022/10/17 01:41:23;;;;;;;4.03;3.50;;;;;;;;;;5050323;28;20611;-75
2022/10/17 01:43:52;;;;;;;3.53;3.23;;;;;;;;;;5050246;28;20573;-75
2022/10/17 01:46:24;;;;;;;3.23;2.93;;;;;;;;;;5049836;28;20298;-75
2022/10/17 01:48:51;;;;;;;3.13;2.80;;;;;;;;;;5050142;28;20202;-75
2022/10/17 01:51:21;;;;;;;3.30;3.00;;;;;;;;;;5050296;28;20202;-77
2022/10/17 01:53:52;;;;;;;3.10;2.80;;;;;;;;;;5050149;28;20201;-77
2022/10/17 01:56:19;;;;;;;4.17;3.17;;;;;;;;;;5049970;28;20209;-77
2022/10/17 01:58:50;;;;;;;3.47;3.10;;;;;;;;;;5049931;28;20212;-77
2022/10/17 02:01:18;;;;;;;3.23;2.93;;;;;;;;;;5049902;28;20238;-77
2022/10/17 02:03:49;;;;;;;3.33;2.93;;;;;;;;;;5049849;28;20217;-77
2022/10/17 02:06:15;;;;;;;5.23;3.40;;;;;;;;;;5049982;28;20230;-77
2022/10/17 02:08:44;;;;;;;3.30;3.00;;;;;;;;;;5049902;28;20202;-75
2022/10/17 02:11:14;;;;;;;3.47;3.13;;;;;;;;;;5049788;28;20205;-74
2022/10/17 02:13:54;;;;;;;5.37;3.33;;;;;;;;;;5049914;28;20206;-74
2022/10/17 02:16:27;;;;;;;3.20;2.90;;;;;;;;;;5040812;28;20265;-75
2022/10/17 02:19:08;;;;;;;3.43;3.13;;;;;;;;;;5050819;28;20193;-75
2022/10/17 02:21:46;;;;;;;5.00;3.10;;;;;;;;;;5053901;28;20247;-75
2022/10/17 02:24:20;;;;;;;4.63;3.17;;;;;;;;;;5053350;28;20308;-75
2022/10/17 02:26:51;;;;;;;5.10;3.30;;;;;;;;;;5053207;28;20237;-75
2022/10/17 02:29:20;;;;;;;5.83;3.13;;;;;;;;;;5053711;28;20632;-75
2022/10/17 02:31:49;;;;;;;3.50;3.00;;;;;;;;;;5053217;28;20201;-75
2022/10/17 02:34:21;;;;;;;4.13;3.70;;;;;;;;;;5052856;28;20209;-75
2022/10/17 02:36:54;;;;;;;4.03;3.50;;;;;;;;;;5052950;28;20205;-75
2022/10/17 02:39:22;;;;;;;4.97;3.30;;;;;;;;;;5053302;28;20202;-75
2022/10/17 02:41:50;;;;;;;8.13;2.83;;;;;;;;;;5053182;28;20263;-75
2022/10/17 02:44:17;;;;;;;3.50;2.53;;;;;;;;;;5052725;28;20198;-75
2022/10/17 02:46:45;;;;;;;2.67;2.40;;;;;;;;;;5053240;28;20684;-75
2022/10/17 02:49:18;;;;;;;2.93;2.73;;;;;;;;;;5052718;28;20256;-75
2022/10/17 02:51:49;;;;;;;5.10;2.90;;;;;;;;;;5053267;28;20209;-75
2022/10/17 02:54:19;;;;;;;4.27;2.60;;;;;;;;;;5052661;28;20633;-75
2022/10/17 02:56:49;;;;;;;2.77;2.47;;;;;;;;;;5052845;28;20226;-75
2022/10/17 02:59:17;;;;;;;3.40;2.53;;;;;;;;;;5053030;28;20198;-74
2022/10/17 03:01:44;;;;;;;7.07;2.70;;;;;;;;;;5052388;28;20639;-74
2022/10/17 03:04:13;;;;;;;3.00;2.70;;;;;;;;;;5052644;28;20201;-74
2022/10/17 03:06:41;;;;;;;3.13;2.83;;;;;;;;;;5052465;28;20222;-74
2022/10/17 03:09:08;;;;;;;4.10;3.03;;;;;;;;;;5052945;28;20206;-74
2022/10/17 03:11:35;;;;;;;3.40;3.10;;;;;;;;;;5052801;28;20209;-75
2022/10/17 03:14:02;;;;;;;3.87;2.73;;;;;;;;;;5052194;28;20217;-75
2022/10/17 03:16:29;;;;;;;2.67;2.30;;;;;;;;;;5052316;28;20206;-76
2022/10/17 03:18:56;;;;;;;3.10;2.60;;;;;;;;;;5052455;28;20204;-76
2022/10/17 03:21:22;;;;;;;3.97;2.83;;;;;;;;;;5052472;28;20202;-76
2022/10/17 03:23:51;;;;;;;2.97;2.77;;;;;;;;;;5052133;28;20210;-76
2022/10/17 03:26:17;;;;;;;2.90;2.50;;;;;;;;;;5052141;28;20229;-76
2022/10/17 03:28:44;;;;;;;4.70;3.50;;;;;;;;;;5051482;28;20260;-76
2022/10/17 03:31:14;;;;;;;4.00;3.10;;;;;;;;;;5052040;28;20201;-77
2022/10/17 03:33:41;;;;;;;4.73;2.13;;;;;;;;;;5050290;28;20279;-76
2022/10/17 03:36:08;;;;;;;3.33;3.03;;;;;;;;;;5051601;28;20577;-75
2022/10/17 03:38:35;;;;;;;3.17;2.83;;;;;;;;;;5052166;28;20213;-76
2022/10/17 03:41:04;;;;;;;4.30;2.90;;;;;;;;;;5051654;28;20202;-76
2022/10/17 03:43:31;;;;;;;3.03;2.70;;;;;;;;;;5051558;28;20268;-76
2022/10/17 03:45:58;;;;;;;3.17;2.73;;;;;;;;;;5052194;28;20236;-78
2022/10/17 03:48:25;;;;;;;2.77;2.53;;;;;;;;;;5052114;28;20194;-78
2022/10/17 03:50:51;;;;;;;3.83;2.77;;;;;;;;;;5051285;28;20205;-78
2022/10/17 03:53:18;;;;;;;2.63;2.43;;;;;;;;;;5031706;28;20203;-78
2022/10/17 03:55:45;;;;;;;6.00;2.93;;;;;;;;;;5031829;28;20669;-77
2022/10/17 03:58:13;;;;;;;2.80;2.60;;;;;;;;;;5032110;28;20209;-78
2022/10/17 04:00:40;;;;;;;4.17;3.33;;;;;;;;;;5051322;28;20680;-77
2022/10/17 04:03:07;;;;;;;5.77;2.83;;;;;;;;;;5051610;28;20234;-77
2022/10/17 04:05:34;;;;;;;3.17;2.60;;;;;;;;;;5051363;28;20252;-77
2022/10/17 04:08:00;;;;;;;3.00;2.70;;;;;;;;;;5051984;28;20566;-78
2022/10/17 04:10:27;;;;;;;5.77;3.07;;;;;;;;;;5050426;28;20623;-78
2022/10/17 04:12:54;;;;;;;4.23;3.83;;;;;;;;;;5045988;28;20206;-78
2022/10/17 04:15:22;;;;;;;3.90;3.50;;;;;;;;;;5040975;28;20214;-78
2022/10/17 04:17:49;;;;;;;3.37;3.07;;;;;;;;;;5050497;28;20198;-78
2022/10/17 04:20:16;;;;;;;6.57;3.07;;;;;;;;;;5050282;28;20206;-78
2022/10/17 04:22:42;;;;;;;3.70;2.70;;;;;;;;;;5050410;28;20201;-78
2022/10/17 04:25:09;;;;;;;3.20;2.73;;;;;;;;;;5050757;28;20201;-79
2022/10/17 04:27:36;;;;;;;3.10;2.70;;;;;;;;;;5050554;28;20210;-78
2022/10/17 04:30:03;;;;;;;5.10;2.87;;;;;;;;;;5044712;28;20680;-78
2022/10/17 04:32:32;;;;;;;2.67;2.47;;;;;;;;;;5051173;28;20268;-78
2022/10/17 04:34:58;;;;;;;4.50;2.73;;;;;;;;;;5050762;28;20210;-78
2022/10/17 04:37:25;;;;;;;2.90;2.67;;;;;;;;;;5051307;28;20644;-78
2022/10/17 04:39:52;;;;;;;4.27;2.40;;;;;;;;;;5050833;28;20201;-78
2022/10/17 04:42:18;;;;;;;5.07;2.60;;;;;;;;;;5050985;28;20210;-78
2022/10/17 04:44:45;;;;;;;4.80;2.77;;;;;;;;;;5050761;28;20202;-78
2022/10/17 04:47:12;;;;;;;3.13;2.90;;;;;;;;;;5050955;28;20742;-78
2022/10/17 04:49:40;;;;;;;3.67;2.20;;;;;;;;;;5050695;28;20206;-78
2022/10/17 04:52:07;;;;;;;2.80;2.60;;;;;;;;;;5050951;28;20596;-78
2022/10/17 04:54:34;;;;;;;2.53;2.33;;;;;;;;;;5050645;28;20279;-78
2022/10/17 04:57:00;;;;;;;3.13;2.60;;;;;;;;;;5051003;28;20205;-78
2022/10/17 04:59:30;;;;;;;2.27;2.17;;;;;;;;;;5050671;28;20676;-78
2022/10/17 05:01:56;;;;;;;5.97;3.50;;;;;;;;;;5050961;28;20275;-78
2022/10/17 05:04:24;;;;;;;5.57;3.93;;;;;;;;;;5050550;28;20198;-77
2022/10/17 05:06:52;;;;;;;4.60;3.20;;;;;;;;;;5050396;28;20229;-77
2022/10/17 05:09:19;;;;;;;4.77;3.93;;;;;;;;;;5050747;28;20217;-78
2022/10/17 05:11:46;;;;;;;4.73;4.07;;;;;;;;;;5050330;28;20680;-78
2022/10/17 05:14:12;;;;;;;4.60;4.10;;;;;;;;;;5050608;28;20206;-78
2022/10/17 05:16:39;;;;;;;5.07;3.13;;;;;;;;;;5050670;28;20255;-78
2022/10/17 05:19:06;;;;;;;7.67;5.33;;;;;;;;;;5050344;28;20204;-78
2022/10/17 05:21:33;;;;;;;4.00;3.70;;;;;;;;;;5050723;28;20220;-78
2022/10/17 05:24:01;;;;;;;4.87;3.17;;;;;;;;;;5050770;28;20287;-77
2022/10/17 05:26:28;;;;;;;3.97;3.33;;;;;;;;;;5050530;28;20231;-78
2022/10/17 05:28:55;;;;;;;5.83;4.13;;;;;;;;;;5050246;28;20259;-78
2022/10/17 05:31:21;;;;;;;8.70;4.13;;;;;;;;;;5050595;28;20202;-77
2022/10/17 05:33:48;;;;;;;4.50;3.53;;;;;;;;;;5050620;28;20660;-77
2022/10/17 05:36:15;;;;;;;4.33;3.10;;;;;;;;;;5035821;28;20209;-77
2022/10/17 05:38:42;;;;;;;3.07;2.83;;;;;;;;;;5050477;28;20209;-77
2022/10/17 05:41:10;;;;;;;3.30;3.00;;;;;;;;;;5050552;28;20209;-78
2022/10/17 05:43:37;;;;;;;2.60;2.40;;;;;;;;;;5050227;28;20201;-77
2022/10/17 05:46:05;;;;;;;2.70;2.27;;;;;;;;;;5050066;28;20248;-78
2022/10/17 05:48:32;;;;;;;2.70;2.33;;;;;;;;;;5050264;28;20288;-77
2022/10/17 05:50:59;;;;;;;3.03;1.73;;;;;;;;;;5051234;28;20206;-77
2022/10/17 05:53:26;;;;;;;2.90;2.70;;;;;;;;;;5054163;28;20269;-77
2022/10/17 05:55:57;;;;;;;4.53;2.77;;;;;;;;;;5054391;28;20267;-77
2022/10/17 05:58:26;;;;;;;2.90;2.60;;;;;;;;;;5053982;28;20277;-77
2022/10/17 06:00:57;;;;;;;8.27;2.63;;;;;;;;;;5053709;28;20255;-78
2022/10/17 06:03:23;;;;;;;3.23;2.93;;;;;;;;;;5054171;28;20210;-77
2022/10/17 06:05:51;;;;;;;3.47;3.17;;;;;;;;;;5053644;28;20201;-78
2022/10/17 06:08:18;;;;;;;6.23;2.53;;;;;;;;;;5054299;28;20229;-77
2022/10/17 06:10:47;;;;;;;4.03;2.63;;;;;;;;;;5040274;28;20206;-78
2022/10/17 06:13:14;;;;;;;3.07;2.40;;;;;;;;;;5053905;28;20230;-77
2022/10/17 06:15:42;;;;;;;4.30;3.47;;;;;;;;;;5053569;28;20630;-77
2022/10/17 06:18:09;;;;;;;4.53;2.93;;;;;;;;;;5054073;28;20576;-77
2022/10/17 06:20:36;;;;;;;4.73;3.40;;;;;;;;;;5053478;28;20734;-78
2022/10/17 06:23:03;;;;;;;4.00;2.97;;;;;;;;;;5054038;28;20202;-78
2022/10/17 06:25:30;;;;;;;3.17;2.83;;;;;;;;;;5053485;28;20594;-78
2022/10/17 06:27:58;;;;;;;4.07;3.50;;;;;;;;;;5053461;28;20237;-77
2022/10/17 06:30:24;;;;;;;6.20;3.83;;;;;;;;;;5053509;28;20205;-77
2022/10/17 06:32:53;;;;;;;4.57;3.77;;;;;;;;;;5039755;28;20213;-77
2022/10/17 06:35:20;;;;;;;4.90;3.80;;;;;;;;;;5053406;28;20201;-77
2022/10/17 06:37:47;;;;;;;5.63;3.83;;;;;;;;;;5053532;28;20211;-77
2022/10/17 06:40:15;;;;;;;3.77;3.20;;;;;;;;;;5053492;28;20206;-77
2022/10/17 06:42:42;;;;;;;5.93;3.27;;;;;;;;;;5052955;28;20634;-78
2022/10/17 06:45:10;;;;;;;5.10;4.00;;;;;;;;;;5053335;28;20201;-78
2022/10/17 06:47:37;;;;;;;7.07;5.03;;;;;;;;;;5053574;28;20233;-78
2022/10/17 06:50:06;;;;;;;4.50;3.87;;;;;;;;;;5052890;28;20206;-78
2022/10/17 06:52:33;;;;;;;6.23;3.07;;;;;;;;;;5053308;28;20198;-78
2022/10/17 06:54:59;;;;;;;3.83;2.70;;;;;;;;;;5053001;28;20210;-78
2022/10/17 06:57:27;;;;;;;3.07;2.80;;;;;;;;;;5052783;28;20202;-78
2022/10/17 06:59:54;;;;;;;2.53;2.33;;;;;;;;;;5052565;28;20206;-78
2022/10/17 07:02:22;;;;;;;3.70;2.40;;;;;;;;;;5051894;28;20292;-78
2022/10/17 07:04:49;;;;;;;2.90;2.70;;;;;;;;;;5053221;28;20204;-78
2022/10/17 07:07:17;;;;;;;3.03;2.37;;;;;;;;;;5053001;28;20708;-78
2022/10/17 07:09:44;;;;;;;2.63;2.43;;;;;;;;;;5052612;28;20206;-78
2022/10/17 07:12:11;;;;;;;2.37;2.17;;;;;;;;;;5052837;28;20209;-79
2022/10/17 07:14:38;;;;;;;2.20;2.10;;;;;;;;;;5052789;28;20210;-78
2022/10/17 07:17:05;;;;;;;2.33;2.13;;;;;;;;;;5052858;28;20204;-78
2022/10/17 07:19:31;;;;;;;2.43;2.23;;;;;;;;;;5052735;28;20208;-78
2022/10/17 07:21:58;;;;;;;2.20;1.70;;;;;;;;;;5052668;28;20287;-78
2022/10/17 07:24:26;;;;;;;3.00;2.47;;;;;;;;;;5052604;28;20206;-78
2022/10/17 07:26:53;;;;;;;2.47;2.27;;;;;;;;;;5052578;28;20295;-78
2022/10/17 07:29:20;;;;;;;1.90;1.80;;;;;;;;;;5052577;28;20624;-78
2022/10/17 07:31:48;;;;;;;2.67;1.97;;;;;;;;;;5052792;28;20206;-79
2022/10/17 07:34:15;;;;;;;3.30;2.30;;;;;;;;;;5052268;28;20221;-78
2022/10/17 07:36:42;;;;;;;2.60;2.40;;;;;;;;;;5052132;28;20287;-78
2022/10/17 07:39:09;;;;;;;2.23;2.03;;;;;;;;;;5052006;28;20205;-79
2022/10/17 07:41:37;;;;;;;2.27;1.77;;;;;;;;;;5052616;28;20644;-78
2022/10/17 07:44:04;;;;;;;2.57;2.37;;;;;;;;;;5052024;28;20209;-79
2022/10/17 07:46:31;;;;;;;2.37;2.17;;;;;;;;;;5052071;28;20247;-78
2022/10/17 07:48:57;;;;;;;2.60;2.40;;;;;;;;;;5052044;28;20197;-78
2022/10/17 07:51:24;;;;;;;5.60;2.50;;;;;;;;;;5051991;28;20213;-78
2022/10/17 07:53:51;;;;;;;1.90;1.80;;;;;;;;;;5052082;28;20197;-78
2022/10/17 07:56:18;;;;;;;2.63;2.00;;;;;;;;;;5051875;28;20213;-79
2022/10/17 07:58:47;;;;;;;2.87;2.20;;;;;;;;;;5051960;28;20202;-78
2022/10/17 08:01:14;;;;;;;2.97;1.97;;;;;;;;;;5052379;28;20226;-79
2022/10/17 08:03:41;;;;;;;2.10;1.90;;;;;;;;;;5052015;28;20229;-79
2022/10/17 08:06:08;;;;;;;3.93;1.97;;;;;;;;;;5051283;28;20212;-79
2022/10/17 08:08:35;;;;;;;3.83;1.90;;;;;;;;;;5051422;28;20229;-79
2022/10/17 08:11:03;;;;;;;2.40;2.07;;;;;;;;;;5051596;28;20204;-79
2022/10/17 08:13:30;;;;;;;5.03;2.00;;;;;;;;;;5051053;28;20629;-79
2022/10/17 08:16:00;;;;;;;2.03;1.70;;;;;;;;;;5051283;28;20208;-79
2022/10/17 08:18:27;;;;;;;4.13;2.10;;;;;;;;;;5051462;28;20207;-78
2022/10/17 08:20:54;;;;;;;2.10;1.77;;;;;;;;;;5051498;28;20651;-79
2022/10/17 08:23:21;;;;;;;2.53;2.20;;;;;;;;;;5051752;28;20213;-79
2022/10/17 08:25:47;;;;;;;4.93;2.10;;;;;;;;;;5051103;28;20215;-79
2022/10/17 08:28:14;;;;;;;5.03;2.13;;;;;;;;;;5051406;28;20239;-79
2022/10/17 08:30:41;;;;;;;1.90;1.80;;;;;;;;;;5051286;28;20211;-79
2022/10/17 08:33:09;;;;;;;2.90;1.90;;;;;;;;;;5051351;28;20209;-79
2022/10/17 08:35:36;;;;;;;3.23;2.10;;;;;;;;;;5051324;28;20209;-79
2022/10/17 08:38:03;;;;;;;1.73;1.63;;;;;;;;;;5051022;28;20212;-79
2022/10/17 08:40:32;;;;;;;1.80;1.70;;;;;;;;;;5051601;28;20270;-78
2022/10/17 08:43:18;;;;;;;2.30;2.10;;;;;;;;;;5051367;28;20598;-79
2022/10/17 08:45:48;;;;;;;1.97;1.87;;;;;;;;;;5050479;28;20198;-79
2022/10/17 08:48:19;;;;;;;2.23;2.03;;;;;;;;;;5051230;28;20226;-79
2022/10/17 08:50:47;;;;;;;2.13;2.03;;;;;;;;;;5051674;28;20205;-79
2022/10/17 08:53:19;;;;;;;2.23;1.57;;;;;;;;;;5050917;28;20205;-78
2022/10/17 08:55:47;;;;;;;2.13;1.73;;;;;;;;;;5050838;28;20189;-79
2022/10/17 08:58:15;;;;;;;2.93;1.80;;;;;;;;;;5050515;28;20680;-79
2022/10/17 09:00:46;;;;;;;1.63;1.53;;;;;;;;;;5051195;28;20194;-78
2022/10/17 09:03:28;;;;;;;1.80;1.70;;;;;;;;;;5050784;28;20734;-79
2022/10/17 09:06:03;;;;;;;3.77;2.03;;;;;;;;;;5050875;28;20198;-79
2022/10/17 09:08:37;;;;;;;3.33;2.03;;;;;;;;;;5050611;28;20232;-78
2022/10/17 09:11:12;;;;;;;1.77;1.63;;;;;;;;;;5050421;28;20213;-78
2022/10/17 09:13:51;;;;;;;3.50;1.90;;;;;;;;;;5050680;28;20201;-78
2022/10/17 09:16:30;;;;;;;2.33;1.97;;;;;;;;;;5050449;28;20205;-78
2022/10/17 09:19:02;;;;;;;1.80;1.50;;;;;;;;;;5050610;28;20278;-79
2022/10/17 09:21:33;;;;;;;3.10;1.77;;;;;;;;;;5050550;28;20208;-79
2022/10/17 09:24:01;;;;;;;1.73;1.50;;;;;;;;;;5049997;28;20252;-79
2022/10/17 09:26:28;;;;;;;2.03;1.83;;;;;;;;;;5049751;28;20205;-78
2022/10/17 09:28:58;;;;;;;2.27;1.70;;;;;;;;;;5050193;28;20225;-78
2022/10/17 09:31:26;;;;;;;2.00;1.80;;;;;;;;;;5050116;28;20283;-79
2022/10/17 09:33:55;;;;;;;1.90;1.80;;;;;;;;;;5049779;28;20244;-78
2022/10/17 09:36:29;;;;;;;1.63;1.53;;;;;;;;;;5050363;28;20281;-78
2022/10/17 09:38:58;;;;;;;2.60;1.60;;;;;;;;;;5050463;28;20206;-78
2022/10/17 09:41:27;;;;;;;2.03;1.93;;;;;;;;;;5050041;28;20205;-79
2022/10/17 09:43:56;;;;;;;6.67;1.70;;;;;;;;;;5050056;28;20201;-79
2022/10/17 09:46:27;;;;;;;2.33;2.13;;;;;;;;;;5050176;28;20198;-79
2022/10/17 09:48:58;;;;;;;6.47;1.90;;;;;;;;;;5050144;28;20703;-79
2022/10/17 09:51:26;;;;;;;1.63;1.53;;;;;;;;;;5050121;28;20209;-79
2022/10/17 09:53:56;;;;;;;2.27;1.80;;;;;;;;;;5050344;28;20267;-79
2022/10/17 09:56:23;;;;;;;2.80;1.80;;;;;;;;;;5050155;28;20202;-79
2022/10/17 09:58:51;;;;;;;2.73;1.93;;;;;;;;;;5036033;28;20206;-78
2022/10/17 10:01:21;;;;;;;3.63;2.60;;;;;;;;;;5050111;28;20238;-78
2022/10/17 10:03:48;;;;;;;5.43;2.43;;;;;;;;;;5050025;28;20206;-78
2022/10/17 10:06:17;;;;;;;1.77;1.60;;;;;;;;;;5050240;28;20202;-78
2022/10/17 10:08:53;;;;;;;1.80;1.70;;;;;;;;;;5049830;28;20229;-78
2022/10/17 10:11:23;;;;;;;1.70;1.50;;;;;;;;;;5050025;28;20575;-78
2022/10/17 10:13:50;;;;;;;1.77;1.67;;;;;;;;;;5049886;28;20799;-78
2022/10/17 10:16:23;;;;;;;1.80;1.70;;;;;;;;;;5050404;28;20217;-78
2022/10/17 10:18:50;;;;;;;1.80;1.70;;;;;;;;;;5050240;28;20284;-79
2022/10/17 10:21:19;;;;;;;4.97;1.80;;;;;;;;;;5050464;28;20666;-78
2022/10/17 10:24:04;;;;;;;4.07;2.00;;;;;;;;;;5049265;28;20704;-79
2022/10/17 10:26:35;;;;;;;2.20;1.77;;;;;;;;;;5049932;28;20681;-79
2022/10/17 10:29:06;;;;;;;1.80;1.70;;;;;;;;;;5049808;28;20218;-79
2022/10/17 10:31:34;;;;;;;1.70;1.60;;;;;;;;;;5050033;28;20206;-78
2022/10/17 10:34:11;;;;;;;2.23;2.03;;;;;;;;;;5049344;28;20220;-78
2022/10/17 10:37:00;;;;;;;1.50;1.40;;;;;;;;;;5050645;28;20205;-78
2022/10/17 10:39:33;;;;;;;2.07;1.97;;;;;;;;;;5050739;28;20190;-79
2022/10/17 10:42:01;;;;;;;1.80;1.70;;;;;;;;;;5053600;28;20691;-78
2022/10/17 10:44:31;;;;;;;2.80;2.43;;;;;;;;;;5052885;28;20202;-78
2022/10/17 10:47:18;;;;;;;3.63;1.80;;;;;;;;;;5052970;28;20206;-78
2022/10/17 10:49:45;;;;;;;2.50;1.70;;;;;;;;;;5053323;28;20217;-78
2022/10/17 10:52:18;;;;;;;1.43;1.33;;;;;;;;;;5053155;28;20210;-78
2022/10/17 10:54:55;;;;;;;2.23;1.63;;;;;;;;;;5052930;28;20206;-78
2022/10/17 10:57:23;;;;;;;1.80;1.70;;;;;;;;;;5053026;28;20205;-78
2022/10/17 10:59:57;;;;;;;2.07;1.80;;;;;;;;;;5053319;28;20210;-78
2022/10/17 11:02:28;;;;;;;2.03;1.70;;;;;;;;;;5053101;28;20233;-78
2022/10/17 11:04:57;;;;;;;1.43;1.37;;;;;;;;;;5052618;28;20201;-78
2022/10/17 11:07:28;;;;;;;1.77;1.50;;;;;;;;;;5052939;28;20209;-79
2022/10/17 11:10:00;;;;;;;1.97;1.77;;;;;;;;;;5053103;28;20237;-78
2022/10/17 11:12:29;;;;;;;1.40;1.30;;;;;;;;;;5038814;28;20555;-78
2022/10/17 11:14:58;;;;;;;1.50;1.40;;;;;;;;;;5052668;28;20259;-79
2022/10/17 11:17:31;;;;;;;1.53;1.43;;;;;;;;;;5052997;28;20201;-78
2022/10/17 11:20:06;;;;;;;2.77;1.70;;;;;;;;;;5052142;28;20202;-80
2022/10/17 11:22:37;;;;;;;4.83;1.87;;;;;;;;;;5052426;28;20205;-78
2022/10/17 11:25:13;;;;;;;1.10;1.10;;;;;;;;;;5052401;28;20205;-79
2022/10/17 11:27:39;;;;;;;1.40;1.30;;;;;;;;;;5052316;28;20711;-79
2022/10/17 11:30:07;;;;;;;1.97;1.40;;;;;;;;;;5052230;28;20206;-79
2022/10/17 11:32:37;;;;;;;1.77;1.40;;;;;;;;;;5051788;28;20213;-79
2022/10/17 11:35:07;;;;;;;3.73;1.50;;;;;;;;;;5052269;28;20684;-79
2022/10/17 11:37:38;;;;;;;1.70;1.30;;;;;;;;;;5052218;28;20213;-79
2022/10/17 11:40:14;;;;;;;1.27;1.20;;;;;;;;;;5052446;28;20198;-79
2022/10/17 11:42:46;;;;;;;1.90;1.60;;;;;;;;;;5052135;28;20202;-79
2022/10/17 11:45:18;;;;;;;1.90;1.60;;;;;;;;;;5051980;28;20209;-78
2022/10/17 11:47:47;;;;;;;2.00;1.90;;;;;;;;;;5051993;28;20221;-78
2022/10/17 11:50:22;;;;;;;3.07;1.47;;;;;;;;;;5051289;28;20198;-78
2022/10/17 11:52:51;;;;;;;2.23;1.60;;;;;;;;;;5052347;28;20201;-78
2022/10/17 11:55:22;;;;;;;1.70;1.60;;;;;;;;;;5051325;28;20620;-78
2022/10/17 11:57:59;;;;;;;2.10;1.90;;;;;;;;;;5051852;28;20639;-79
2022/10/17 12:00:31;;;;;;;4.70;1.70;;;;;;;;;;5051907;28;20267;-79
2022/10/17 12:03:05;;;;;;;4.93;1.60;;;;;;;;;;5050476;28;20240;-79
2022/10/17 12:05:37;;;;;;;8.37;1.80;;;;;;;;;;5051587;28;20208;-79
2022/10/17 12:08:06;;;;;;;1.70;1.60;;;;;;;;;;5051174;28;20217;-79
2022/10/17 12:10:45;;;;;;;4.90;1.70;;;;;;;;;;5051841;28;20285;-79
2022/10/17 12:13:46;;;;;;;2.47;1.73;;;;;;;;;;5051418;28;20208;-78
2022/10/17 12:16:38;;;;;;;2.37;2.17;;;;;;;;;;5037759;28;20210;-78
2022/10/17 12:19:27;;;;;;;3.63;2.00;;;;;;;;;;5051538;28;20198;-79
2022/10/17 12:21:55;;;;;;;2.47;1.80;;;;;;;;;;5051326;28;20599;-79
2022/10/17 12:24:33;;;;;;;3.17;1.90;;;;;;;;;;5037583;28;20606;-78
2022/10/17 12:27:33;;;;;;;2.33;2.13;;;;;;;;;;5051290;28;20205;-79
2022/10/17 12:30:02;;;;;;;3.37;2.43;;;;;;;;;;5042319;28;20209;-79
2022/10/17 12:32:29;;;;;;;5.00;1.87;;;;;;;;;;5050884;28;20626;-80
2022/10/17 12:34:56;;;;;;;2.17;1.97;;;;;;;;;;5051273;28;20205;-78
2022/10/17 12:38:14;;;;;;;3.33;2.60;;;;;;;;;;5050964;28;20285;-78
2022/10/17 12:40:52;;;;;;;2.17;1.87;;;;;;;;;;5050637;28;20304;-78
2022/10/17 12:43:45;;;;;;;4.30;1.80;;;;;;;;;;5050985;28;20210;-79
2022/10/17 12:46:13;;;;;;;2.30;2.10;;;;;;;;;;5051029;28;20197;-78
2022/10/17 12:49:00;;;;;;;3.53;2.10;;;;;;;;;;5037598;28;20222;-79
2022/10/17 12:51:28;;;;;;;5.50;3.77;;;;;;;;;;5050744;28;20237;-79
2022/10/17 12:53:58;;;;;;;2.57;2.10;;;;;;;;;;5050721;28;20208;-78
2022/10/17 12:56:38;;;;;;;2.10;1.90;;;;;;;;;;5050809;28;20197;-79
2022/10/17 12:59:11;;;;;;;3.53;2.20;;;;;;;;;;5050759;28;20565;-79
2022/10/17 13:01:40;;;;;;;2.03;1.80;;;;;;;;;;5049902;28;20230;-79
2022/10/17 13:04:09;;;;;;;4.80;2.00;;;;;;;;;;5050365;28;20709;-78
2022/10/17 13:06:39;;;;;;;4.07;1.80;;;;;;;;;;5050860;28;20205;-79
2022/10/17 13:09:09;;;;;;;2.70;1.90;;;;;;;;;;5037094;28;20665;-79
2022/10/17 13:11:37;;;;;;;2.70;1.90;;;;;;;;;;5050667;28;20225;-79
2022/10/17 13:14:11;;;;;;;2.37;2.00;;;;;;;;;;5050476;28;20287;-78
2022/10/17 13:16:41;;;;;;;7.77;3.03;;;;;;;;;;5050364;28;20252;-78
2022/10/17 13:19:14;;;;;;;3.17;2.40;;;;;;;;;;5050225;28;20201;-79
2022/10/17 13:21:49;;;;;;;2.50;2.30;;;;;;;;;;5050665;28;20202;-79
2022/10/17 13:24:21;;;;;;;2.70;2.50;;;;;;;;;;5050473;28;20220;-78
2022/10/17 13:26:48;;;;;;;1.80;1.70;;;;;;;;;;5050760;28;20205;-79
2022/10/17 13:29:18;;;;;;;2.40;1.97;;;;;;;;;;5049768;28;20236;-80
2022/10/17 13:31:52;;;;;;;3.63;2.23;;;;;;;;;;5050236;28;20206;-79
2022/10/17 13:34:20;;;;;;;2.83;2.50;;;;;;;;;;5050123;28;20289;-79
2022/10/17 13:36:48;;;;;;;2.37;2.17;;;;;;;;;;5050333;28;20209;-79
2022/10/17 13:39:18;;;;;;;3.37;2.50;;;;;;;;;;5050099;28;20638;-79
2022/10/17 13:41:45;;;;;;;5.00;2.17;;;;;;;;;;5050093;28;20205;-79
2022/10/17 13:44:14;;;;;;;6.83;2.40;;;;;;;;;;5049989;28;20261;-79
2022/10/17 13:46:41;;;;;;;4.70;2.23;;;;;;;;;;5050133;28;20205;-78
2022/10/17 13:49:17;;;;;;;2.30;2.10;;;;;;;;;;5050266;28;20287;-79
2022/10/17 13:51:45;;;;;;;1.97;1.77;;;;;;;;;;5050174;28;20658;-79
2022/10/17 13:54:25;;;;;;;8.03;2.47;;;;;;;;;;5049647;28;20201;-79
2022/10/17 13:56:56;;;;;;;5.80;1.93;;;;;;;;;;5050203;28;20202;-78
2022/10/17 13:59:25;;;;;;;2.10;1.90;;;;;;;;;;5050065;28;20692;-78
2022/10/17 14:01:52;;;;;;;2.73;2.53;;;;;;;;;;5050425;28;20661;-78
2022/10/17 14:04:20;;;;;;;5.20;2.60;;;;;;;;;;5049769;28;20202;-79
2022/10/17 14:06:47;;;;;;;5.10;2.50;;;;;;;;;;5049784;28;20248;-78
2022/10/17 14:09:18;;;;;;;3.37;2.17;;;;;;;;;;5049884;28;20225;-79
2022/10/17 14:11:45;;;;;;;2.40;2.00;;;;;;;;;;5050287;28;20206;-79
2022/10/17 14:14:18;;;;;;;4.33;2.27;;;;;;;;;;5053753;28;20206;-79
2022/10/17 14:16:45;;;;;;;3.17;1.90;;;;;;;;;;5054071;28;20202;-79
2022/10/17 14:19:20;;;;;;;2.70;2.13;;;;;;;;;;5053579;28;20202;-79
2022/10/17 14:21:52;;;;;;;2.50;2.03;;;;;;;;;;5054224;28;20607;-79
2022/10/17 14:24:30;;;;;;;7.20;3.27;;;;;;;;;;5053106;28;20619;-79
2022/10/17 14:26:58;;;;;;;6.10;2.10;;;;;;;;;;5053827;28;20202;-79
2022/10/17 14:29:27;;;;;;;3.40;3.10;;;;;;;;;;5053317;28;20253;-79
2022/10/17 14:32:02;;;;;;;2.50;2.07;;;;;;;;;;5052874;28;20210;-79
2022/10/17 14:34:33;;;;;;;1.80;1.60;;;;;;;;;;5053234;28;20201;-80
2022/10/17 14:37:01;;;;;;;6.70;3.67;;;;;;;;;;5053351;28;20198;-80
2022/10/17 14:39:28;;;;;;;3.07;2.60;;;;;;;;;;5053409;28;20681;-79
2022/10/17 14:41:56;;;;;;;4.17;1.93;;;;;;;;;;5053390;28;20301;-79
2022/10/17 14:44:29;;;;;;;4.43;3.10;;;;;;;;;;5052765;28;20297;-79
2022/10/17 14:47:00;;;;;;;2.73;2.53;;;;;;;;;;5053845;28;20290;-79
2022/10/17 14:49:36;;;;;;;3.57;2.50;;;;;;;;;;5053290;28;20225;-79
2022/10/17 14:52:27;;;;;;;3.50;2.40;;;;;;;;;;5039096;28;20206;-79
2022/10/17 14:54:55;;;;;;;2.07;1.87;;;;;;;;;;5052805;28;20210;-79
2022/10/17 14:57:29;;;;;;;3.00;2.20;;;;;;;;;;5053376;28;20216;-79
2022/10/17 14:59:56;;;;;;;5.67;1.93;;;;;;;;;;5052892;28;20224;-79